createdAt,value
2023-04-26T00:02:27.744Z,99167.19
2023-04-26T00:05:05.980Z,99162.69
2023-04-26T00:07:33.379Z,99156.53
2023-04-26T00:10:02.195Z,99162.56
2023-04-26T00:12:29.702Z,99164.09
2023-04-26T00:14:57.209Z,99159.31
2023-04-26T00:17:25.660Z,99159.78
2023-04-26T00:19:53.157Z,99163.25
2023-04-26T00:22:20.619Z,99161.00
2023-04-26T00:24:50.221Z,99159.06
2023-04-26T00:27:18.448Z,99163.50
2023-04-26T00:29:45.501Z,99165.84
2023-04-26T00:32:13.025Z,99169.56
2023-04-26T00:34:41.590Z,99160.75
2023-04-26T00:37:09.865Z,99163.63
2023-04-26T00:39:37.548Z,99165.44
2023-04-26T00:42:05.013Z,99162.03
2023-04-26T00:44:33.333Z,99165.53
2023-04-26T00:47:01.992Z,99175.94
2023-04-26T00:49:30.254Z,99173.03
2023-04-26T00:51:58.631Z,99171.69
2023-04-26T00:54:26.993Z,99177.34
2023-04-26T00:56:54.889Z,99169.38
2023-04-26T00:59:22.720Z,99173.97
2023-04-26T01:01:50.012Z,99169.66
2023-04-26T01:04:21.222Z,99168.25
2023-04-26T01:06:49.972Z,99172.59
2023-04-26T01:09:19.369Z,99181.66
2023-04-26T01:11:47.542Z,99181.38
2023-04-26T01:14:16.734Z,99180.13
2023-04-26T01:16:47.235Z,99188.16
2023-04-26T01:19:15.504Z,99185.91
2023-04-26T01:21:43.672Z,99192.94
2023-04-26T01:24:12.654Z,99195.50
2023-04-26T01:26:46.056Z,99205.81
2023-04-26T01:29:21.666Z,99196.81
2023-04-26T01:31:50.059Z,99204.59
2023-04-26T01:34:19.253Z,99200.97
2023-04-26T01:36:46.812Z,99202.72
2023-04-26T01:39:14.295Z,99212.25
2023-04-26T01:41:41.786Z,99212.41
2023-04-26T01:44:09.223Z,99208.19
2023-04-26T01:46:36.781Z,99213.44
2023-04-26T01:49:05.549Z,99218.94
2023-04-26T01:51:34.540Z,99223.34
2023-04-26T01:54:02.425Z,99220.22
2023-04-26T01:56:30.079Z,99220.34
2023-04-26T01:58:57.767Z,99220.28
2023-04-26T02:01:27.497Z,99218.78
2023-04-26T02:03:55.015Z,99217.16
2023-04-26T02:06:22.492Z,99219.81
2023-04-26T02:08:50.187Z,99225.31
2023-04-26T02:11:17.936Z,99223.53
2023-04-26T02:13:45.448Z,99228.72
2023-04-26T02:16:12.778Z,99229.69
2023-04-26T02:18:41.936Z,99227.19
2023-04-26T02:21:12.111Z,99226.44
2023-04-26T02:23:39.309Z,99217.81
2023-04-26T02:26:06.789Z,99222.72
2023-04-26T02:28:35.147Z,99225.31
2023-04-26T02:31:03.216Z,99228.75
2023-04-26T02:33:30.936Z,99226.94
2023-04-26T02:35:58.982Z,99222.72
2023-04-26T02:38:35.727Z,99221.03
2023-04-26T02:41:04.173Z,99222.84
2023-04-26T02:43:32.982Z,99218.53
2023-04-26T02:46:01.683Z,99220.44
2023-04-26T02:48:29.179Z,99219.84
2023-04-26T02:50:57.665Z,99220.75
2023-04-26T02:53:25.065Z,99221.72
2023-04-26T02:55:53.627Z,99216.47
2023-04-26T02:58:21.655Z,99220.88
2023-04-26T03:00:49.081Z,99222.56
2023-04-26T03:03:24.942Z,99225.25
2023-04-26T03:05:52.217Z,99224.38
2023-04-26T03:08:20.668Z,99227.81
2023-04-26T03:10:48.097Z,99233.06
2023-04-26T03:13:15.581Z,99236.59
2023-04-26T03:15:46.828Z,99240.09
2023-04-26T03:18:14.097Z,99233.06
2023-04-26T03:20:42.643Z,99246.09
2023-04-26T03:23:09.937Z,99243.44
2023-04-26T03:25:37.891Z,99247.81
2023-04-26T03:28:05.491Z,99242.63
2023-04-26T03:30:32.902Z,99253.03
2023-04-26T03:33:00.973Z,99246.16
2023-04-26T03:35:30.260Z,99251.38
2023-04-26T03:38:03.980Z,99256.66
2023-04-26T03:40:31.057Z,99255.69
2023-04-26T03:43:08.781Z,99252.19
2023-04-26T03:45:37.096Z,99257.41
2023-04-26T03:48:04.727Z,99260.03
2023-04-26T03:50:32.096Z,99257.44
2023-04-26T03:52:59.701Z,99254.88
2023-04-26T03:55:27.102Z,99247.94
2023-04-26T03:57:54.522Z,99253.13
2023-04-26T04:00:23.100Z,99254.81
2023-04-26T04:02:50.357Z,99256.50
2023-04-26T04:05:17.981Z,99263.41
2023-04-26T04:07:46.621Z,99259.78
2023-04-26T04:10:19.501Z,99261.41
2023-04-26T04:12:47.919Z,99269.06
2023-04-26T04:15:15.507Z,99261.13
2023-04-26T04:17:43.970Z,99271.41
2023-04-26T04:20:14.228Z,99273.84
2023-04-26T04:22:41.492Z,99268.47
2023-04-26T04:25:15.102Z,99277.91
2023-04-26T04:27:43.896Z,99275.00
2023-04-26T04:30:12.794Z,99277.94
2023-04-26T04:32:40.597Z,99285.31
2023-04-26T04:35:08.218Z,99277.97
2023-04-26T04:37:35.318Z,99274.06
2023-04-26T04:40:02.896Z,99270.28
2023-04-26T04:42:30.318Z,99282.31
2023-04-26T04:45:00.178Z,99286.53
2023-04-26T04:47:27.318Z,99283.69
2023-04-26T04:49:55.696Z,99288.78
2023-04-26T04:52:30.245Z,99299.13
2023-04-26T04:54:57.784Z,99299.00
2023-04-26T04:57:25.295Z,99291.13
2023-04-26T04:59:52.699Z,99303.19
2023-04-26T05:02:20.584Z,99298.56
2023-04-26T05:04:48.509Z,99302.13
2023-04-26T05:07:16.137Z,99301.03
2023-04-26T05:09:43.539Z,99309.75
2023-04-26T05:12:11.153Z,99302.56
2023-04-26T05:14:41.315Z,99321.78
2023-04-26T05:17:08.444Z,99323.34
2023-04-26T05:19:35.959Z,99319.88
2023-04-26T05:22:03.402Z,99321.53
2023-04-26T05:24:31.958Z,99327.63
2023-04-26T05:27:00.395Z,99324.94
2023-04-26T05:29:33.902Z,99332.50
2023-04-26T05:32:01.284Z,99334.41
2023-04-26T05:34:28.865Z,99340.25
2023-04-26T05:36:58.478Z,99338.41
2023-04-26T05:39:25.919Z,99334.66
2023-04-26T05:41:53.245Z,99351.88
2023-04-26T05:44:21.805Z,99346.53
2023-04-26T05:46:51.405Z,99358.78
2023-04-26T05:49:18.750Z,99362.38
2023-04-26T05:51:46.355Z,99358.13
2023-04-26T05:54:13.704Z,99366.72
2023-04-26T05:56:47.304Z,99360.25
2023-04-26T05:59:14.603Z,99366.34
2023-04-26T06:01:41.807Z,99359.66
2023-04-26T06:04:09.743Z,99353.56
2023-04-26T06:06:37.666Z,99359.44
2023-04-26T06:09:07.110Z,99360.91
2023-04-26T06:11:34.508Z,99356.53
2023-04-26T06:14:03.020Z,99371.66
2023-04-26T06:16:32.466Z,99357.88
2023-04-26T06:18:59.984Z,99368.97
2023-04-26T06:21:27.617Z,99360.81
2023-04-26T06:23:55.436Z,99381.75
2023-04-26T06:26:22.859Z,99370.75
2023-04-26T06:28:50.301Z,99375.72
2023-04-26T06:31:17.847Z,99384.03
2023-04-26T06:33:45.187Z,99380.28
2023-04-26T06:36:13.746Z,99377.50
2023-04-26T06:38:42.228Z,99376.19
2023-04-26T06:41:09.741Z,99385.72
2023-04-26T06:43:37.025Z,99391.63
2023-04-26T06:46:05.159Z,99388.00
2023-04-26T06:48:34.583Z,99377.00
2023-04-26T06:51:06.880Z,99382.97
2023-04-26T06:53:37.952Z,99393.31
2023-04-26T06:56:05.506Z,99397.22
2023-04-26T06:58:32.707Z,99381.38
2023-04-26T07:01:00.121Z,99403.19
2023-04-26T07:03:27.736Z,99405.31
2023-04-26T07:05:56.958Z,99389.56
2023-04-26T07:08:25.601Z,99398.28
2023-04-26T07:10:59.230Z,99395.88
2023-04-26T07:13:26.669Z,99393.41
2023-04-26T07:15:53.972Z,99401.00
2023-04-26T07:18:21.494Z,99394.94
2023-04-26T07:20:49.840Z,99380.66
2023-04-26T07:23:16.956Z,99384.81
2023-04-26T07:25:44.328Z,99399.09
2023-04-26T07:28:11.886Z,99388.84
2023-04-26T07:30:39.430Z,99393.03
2023-04-26T07:33:07.819Z,99399.31
2023-04-26T07:35:36.414Z,99407.00
2023-04-26T07:38:04.679Z,99403.56
2023-04-26T07:40:32.089Z,99393.50
2023-04-26T07:42:59.573Z,99403.94
2023-04-26T07:45:28.374Z,99402.41
2023-04-26T07:47:55.477Z,99403.66
2023-04-26T07:50:28.641Z,99402.78
2023-04-26T07:52:57.142Z,99407.19
2023-04-26T07:55:24.786Z,99402.19
2023-04-26T07:57:51.992Z,99401.78
2023-04-26T08:00:22.699Z,99409.56
2023-04-26T08:02:50.505Z,99424.28
2023-04-26T08:05:18.234Z,99417.72
2023-04-26T08:07:45.429Z,99411.97
2023-04-26T08:10:12.918Z,99432.53
2023-04-26T08:12:40.586Z,99406.09
2023-04-26T08:15:08.645Z,99413.84
2023-04-26T08:17:35.809Z,99418.31
2023-04-26T08:20:06.520Z,99424.38
2023-04-26T08:22:34.776Z,99432.19
2023-04-26T08:25:02.296Z,99426.31
2023-04-26T08:27:32.155Z,99423.09
2023-04-26T08:29:59.256Z,99413.69
2023-04-26T08:32:26.915Z,99426.91
2023-04-26T08:34:56.119Z,99415.03
2023-04-26T08:37:23.584Z,99410.56
2023-04-26T08:39:51.107Z,99417.34
2023-04-26T08:42:21.897Z,99432.16
2023-04-26T08:44:52.383Z,99429.75
2023-04-26T08:47:32.255Z,99419.28
2023-04-26T08:50:03.149Z,99420.03
2023-04-26T08:52:33.134Z,99417.88
2023-04-26T08:55:01.392Z,99422.00
2023-04-26T08:57:33.217Z,99396.19
2023-04-26T09:00:10.185Z,99424.88
2023-04-26T09:02:37.508Z,99436.50
2023-04-26T09:05:07.888Z,99426.22
2023-04-26T09:08:05.656Z,99416.44
2023-04-26T09:10:33.466Z,99427.06
2023-04-26T09:13:01.792Z,99426.94
2023-04-26T09:15:29.265Z,99446.72
2023-04-26T09:17:56.626Z,99423.00
2023-04-26T09:20:31.583Z,99414.50
2023-04-26T09:23:10.674Z,99415.38
2023-04-26T09:25:38.537Z,99439.38
2023-04-26T09:28:21.766Z,99436.75
2023-04-26T09:30:50.004Z,99439.06
2023-04-26T09:33:19.999Z,99440.41
2023-04-26T09:35:47.348Z,99449.56
2023-04-26T09:38:17.955Z,99449.94
2023-04-26T09:40:47.518Z,99454.50
2023-04-26T09:43:21.627Z,99428.59
2023-04-26T09:45:57.704Z,99434.38
2023-04-26T09:48:32.501Z,99440.59
2023-04-26T09:51:12.592Z,99429.59
2023-04-26T09:53:46.811Z,99428.00
2023-04-26T09:56:19.155Z,99439.38
2023-04-26T09:58:59.101Z,99438.28
2023-04-26T10:01:33.942Z,99427.81
2023-04-26T10:04:05.181Z,99430.59
2023-04-26T10:06:33.388Z,99429.84
2023-04-26T10:09:02.261Z,99425.03
2023-04-26T10:11:30.918Z,99426.25
2023-04-26T10:13:59.181Z,99425.19
2023-04-26T10:16:26.725Z,99434.22
2023-04-26T10:18:54.904Z,99426.50
2023-04-26T10:21:31.882Z,99428.16
2023-04-26T10:24:08.059Z,99417.34
2023-04-26T10:26:57.275Z,99447.41
2023-04-26T10:29:27.377Z,99449.84
2023-04-26T10:32:17.015Z,99449.09
2023-04-26T10:34:44.713Z,99437.63
2023-04-26T10:37:15.592Z,99428.19
2023-04-26T10:39:47.342Z,99438.97
2023-04-26T10:42:31.147Z,99440.25
2023-04-26T10:44:59.787Z,99453.69
2023-04-26T10:47:37.609Z,99436.94
2023-04-26T10:50:11.202Z,99432.69
2023-04-26T10:53:07.234Z,99427.97
2023-04-26T10:55:43.988Z,99427.50
2023-04-26T10:58:41.830Z,99416.56
2023-04-26T11:01:17.187Z,99412.47
2023-04-26T11:04:05.492Z,99414.75
2023-04-26T11:06:50.044Z,99436.44
2023-04-26T11:09:41.056Z,99429.47
2023-04-26T11:12:15.959Z,99452.88
2023-04-26T11:14:46.447Z,99449.25
2023-04-26T11:17:13.981Z,99435.28
2023-04-26T11:19:47.816Z,99442.56
2023-04-26T11:22:16.744Z,99431.53
2023-04-26T11:24:45.080Z,99428.78
2023-04-26T11:27:12.511Z,99415.22
2023-04-26T11:29:40.105Z,99412.31
2023-04-26T11:32:07.394Z,99438.59
2023-04-26T11:34:36.201Z,99426.97
2023-04-26T11:37:05.164Z,99440.94
2023-04-26T11:39:37.280Z,99448.84
2023-04-26T11:42:12.225Z,99443.44
2023-04-26T11:44:42.051Z,99447.19
2023-04-26T11:47:09.980Z,99448.94
2023-04-26T11:49:38.489Z,99448.19
2023-04-26T11:52:06.998Z,99455.22
2023-04-26T11:54:36.168Z,99436.09
2023-04-26T11:57:16.704Z,99436.38
2023-04-26T11:59:50.847Z,99427.22
2023-04-26T12:02:19.402Z,99452.59
2023-04-26T12:04:47.051Z,99434.75
2023-04-26T12:07:19.201Z,99454.69
2023-04-26T12:09:46.387Z,99415.41
2023-04-26T12:12:19.895Z,99454.72
2023-04-26T12:14:47.934Z,99448.22
2023-04-26T12:17:16.139Z,99448.25
2023-04-26T12:19:44.295Z,99442.69
2023-04-26T12:22:11.771Z,99449.47
2023-04-26T12:24:39.414Z,99449.69
2023-04-26T12:27:07.423Z,99445.94
2023-04-26T12:29:36.256Z,99419.88
2023-04-26T12:32:04.480Z,99425.41
2023-04-26T12:34:32.150Z,99411.78
2023-04-26T12:36:59.599Z,99435.19
2023-04-26T12:39:27.111Z,99437.56
2023-04-26T12:41:55.541Z,99477.28
2023-04-26T12:44:23.128Z,99478.84
2023-04-26T12:46:51.549Z,99479.44
2023-04-26T12:49:20.008Z,99484.75
2023-04-26T12:51:47.588Z,99497.59
2023-04-26T12:54:16.106Z,99476.13
2023-04-26T12:56:49.845Z,99466.88
2023-04-26T12:59:17.060Z,99457.19
2023-04-26T13:01:44.418Z,99465.22
2023-04-26T13:04:12.188Z,99455.47
2023-04-26T13:06:40.131Z,99453.41
2023-04-26T13:09:08.835Z,99444.38
2023-04-26T13:11:37.496Z,99436.16
2023-04-26T13:14:10.930Z,99444.84
2023-04-26T13:16:42.630Z,99442.03
2023-04-26T13:19:12.818Z,99423.94
2023-04-26T13:21:41.197Z,99438.44
2023-04-26T13:24:08.559Z,99441.50
2023-04-26T13:26:35.880Z,99437.50
2023-04-26T13:29:04.771Z,99437.13
2023-04-26T13:31:32.586Z,99443.34
2023-04-26T13:34:01.856Z,99443.16
2023-04-26T13:36:29.603Z,99451.13
2023-04-26T13:38:57.824Z,99445.59
2023-04-26T13:41:25.199Z,99440.06
2023-04-26T13:43:52.684Z,99444.66
2023-04-26T13:46:20.364Z,99447.88
2023-04-26T13:48:47.551Z,99451.91
2023-04-26T13:51:15.745Z,99452.72
2023-04-26T13:53:49.170Z,99451.94
2023-04-26T13:56:18.151Z,99464.88
2023-04-26T13:58:45.819Z,99457.94
2023-04-26T14:01:14.375Z,99457.53
2023-04-26T14:03:43.048Z,99467.28
2023-04-26T14:06:24.049Z,99477.53
2023-04-26T14:08:52.116Z,99476.38
2023-04-26T14:11:25.641Z,99480.47
2023-04-26T14:13:56.308Z,99483.09
2023-04-26T14:16:24.964Z,99464.47
2023-04-26T14:18:52.693Z,99478.91
2023-04-26T14:21:20.315Z,99471.63
2023-04-26T14:23:47.910Z,99485.38
2023-04-26T14:26:15.444Z,99472.94
2023-04-26T14:28:42.898Z,99469.69
2023-04-26T14:31:10.369Z,99472.00
2023-04-26T14:33:37.831Z,99461.75
2023-04-26T14:36:07.613Z,99481.41
2023-04-26T14:38:35.204Z,99480.28
2023-04-26T14:41:02.725Z,99492.59
2023-04-26T14:43:30.411Z,99477.25
2023-04-26T14:45:58.824Z,99486.41
2023-04-26T14:48:26.546Z,99493.88
2023-04-26T14:51:01.523Z,99499.34
2023-04-26T14:53:29.141Z,99488.28
2023-04-26T14:56:00.031Z,99484.84
2023-04-26T14:58:28.481Z,99482.66
2023-04-26T15:00:55.978Z,99485.22
2023-04-26T15:03:23.284Z,99488.94
2023-04-26T15:05:51.078Z,99491.44
2023-04-26T15:08:18.916Z,99493.69
2023-04-26T15:10:47.019Z,99489.47
2023-04-26T15:13:14.616Z,99503.28
2023-04-26T15:15:42.470Z,99502.59
2023-04-26T15:18:15.619Z,99499.22
2023-04-26T15:20:48.708Z,99492.94
2023-04-26T15:23:16.652Z,99499.13
2023-04-26T15:25:44.160Z,99491.31
2023-04-26T15:28:11.902Z,99492.22
2023-04-26T15:30:39.139Z,99495.00
2023-04-26T15:33:07.211Z,99512.84
2023-04-26T15:35:34.652Z,99502.94
2023-04-26T15:38:02.416Z,99520.16
2023-04-26T15:40:29.549Z,99522.41
2023-04-26T15:42:57.071Z,99521.34
2023-04-26T15:45:26.570Z,99514.38
2023-04-26T15:47:54.923Z,99513.53
2023-04-26T15:50:22.655Z,99512.66
2023-04-26T15:52:50.056Z,99512.75
2023-04-26T15:55:18.385Z,99505.09
2023-04-26T15:57:52.527Z,99498.91
2023-04-26T16:00:21.875Z,99500.66
2023-04-26T16:02:49.252Z,99512.94
2023-04-26T16:05:19.594Z,99512.66
2023-04-26T16:07:47.070Z,99516.13
2023-04-26T16:10:15.401Z,99529.81
2023-04-26T16:12:44.822Z,99517.25
2023-04-26T16:15:12.353Z,99518.28
2023-04-26T16:17:39.681Z,99513.50
2023-04-26T16:20:13.388Z,99509.69
2023-04-26T16:22:40.588Z,99515.91
2023-04-26T16:25:09.223Z,99509.31
2023-04-26T16:27:37.755Z,99516.69
2023-04-26T16:30:05.948Z,99512.97
2023-04-26T16:32:39.320Z,99519.91
2023-04-26T16:35:07.115Z,99517.44
2023-04-26T16:37:34.959Z,99521.00
2023-04-26T16:40:02.307Z,99519.00
2023-04-26T16:42:30.526Z,99533.88
2023-04-26T16:44:58.422Z,99528.72
2023-04-26T16:47:27.173Z,99538.56
2023-04-26T16:49:54.516Z,99537.78
2023-04-26T16:52:22.293Z,99540.13
2023-04-26T16:54:49.547Z,99529.88
2023-04-26T16:57:17.867Z,99535.56
2023-04-26T16:59:45.559Z,99535.97
2023-04-26T17:02:14.222Z,99546.72
2023-04-26T17:04:42.373Z,99547.06
2023-04-26T17:07:11.141Z,99556.91
2023-04-26T17:09:40.201Z,99561.84
2023-04-26T17:12:07.813Z,99562.47
2023-04-26T17:14:36.616Z,99568.56
2023-04-26T17:17:03.786Z,99565.66
2023-04-26T17:19:32.701Z,99563.88
2023-04-26T17:22:00.485Z,99570.25
2023-04-26T17:24:28.897Z,99568.28
2023-04-26T17:26:56.432Z,99577.03
2023-04-26T17:29:27.301Z,99576.56
2023-04-26T17:31:55.494Z,99573.63
2023-04-26T17:34:23.173Z,99583.41
2023-04-26T17:36:53.350Z,99584.72
2023-04-26T17:39:20.872Z,99577.56
2023-04-26T17:41:48.463Z,99595.47
2023-04-26T17:44:16.781Z,99592.84
2023-04-26T17:46:50.260Z,99592.84
2023-04-26T17:49:17.869Z,99588.47
2023-04-26T17:51:45.748Z,99598.09
2023-04-26T17:54:14.957Z,99597.19
2023-04-26T17:56:43.743Z,99595.91
2023-04-26T17:59:11.628Z,99603.44
2023-04-26T18:01:39.482Z,99596.63
2023-04-26T18:04:07.960Z,99603.06
2023-04-26T18:06:37.465Z,99606.78
2023-04-26T18:09:18.072Z,99608.72
2023-04-26T18:11:48.709Z,99616.88
2023-04-26T18:14:17.015Z,99621.44
2023-04-26T18:16:44.861Z,99618.97
2023-04-26T18:19:13.259Z,99622.78
2023-04-26T18:21:52.692Z,99615.78
2023-04-26T18:24:22.445Z,99622.38
2023-04-26T18:26:50.002Z,99622.50
2023-04-26T18:29:17.915Z,99624.13
2023-04-26T18:31:46.554Z,99620.66
2023-04-26T18:34:14.269Z,99623.03
2023-04-26T18:36:42.422Z,99624.00
2023-04-26T18:39:10.214Z,99623.34
2023-04-26T18:41:38.224Z,99629.56
2023-04-26T18:44:13.945Z,99631.47
2023-04-26T18:46:43.604Z,99635.13
2023-04-26T18:49:17.618Z,99634.91
2023-04-26T18:51:46.702Z,99629.84
2023-04-26T18:54:14.614Z,99638.84
2023-04-26T18:56:43.162Z,99643.72
2023-04-26T18:59:11.098Z,99638.88
2023-04-26T19:01:39.398Z,99643.38
2023-04-26T19:04:09.329Z,99649.41
2023-04-26T19:06:42.693Z,99646.53
2023-04-26T19:09:13.393Z,99653.78
2023-04-26T19:11:41.382Z,99657.44
2023-04-26T19:14:10.549Z,99659.63
2023-04-26T19:16:39.293Z,99661.31
2023-04-26T19:19:07.470Z,99664.06
2023-04-26T19:21:35.967Z,99669.59
2023-04-26T19:24:06.356Z,99672.75
2023-04-26T19:26:34.286Z,99671.31
2023-04-26T19:29:06.090Z,99663.06
2023-04-26T19:31:34.700Z,99664.22
2023-04-26T19:34:04.230Z,99659.78
2023-04-26T19:36:35.812Z,99668.34
2023-04-26T19:39:05.311Z,99672.13
2023-04-26T19:41:33.270Z,99674.81
2023-04-26T19:44:00.720Z,99680.41
2023-04-26T19:46:30.645Z,99675.44
2023-04-26T19:48:59.586Z,99677.03
2023-04-26T19:51:30.266Z,99684.47
2023-04-26T19:53:57.509Z,99683.41
2023-04-26T19:56:28.380Z,99684.69
2023-04-26T19:58:57.990Z,99689.69
2023-04-26T20:01:33.791Z,99689.59
2023-04-26T20:04:02.755Z,99686.69
2023-04-26T20:06:30.634Z,99692.16
2023-04-26T20:08:58.594Z,99685.63
2023-04-26T20:11:28.028Z,99686.31
2023-04-26T20:13:58.704Z,99688.44
2023-04-26T20:16:35.433Z,99689.25
2023-04-26T20:19:03.307Z,99688.53
2023-04-26T20:21:31.210Z,99694.25
2023-04-26T20:23:59.257Z,99694.72
2023-04-26T20:26:28.187Z,99700.38
2023-04-26T20:28:56.974Z,99694.25
2023-04-26T20:31:25.037Z,99689.94
2023-04-26T20:33:54.084Z,99693.19
2023-04-26T20:36:21.754Z,99696.38
2023-04-26T20:38:49.233Z,99695.56
2023-04-26T20:41:16.898Z,99692.19
2023-04-26T20:43:44.793Z,99693.50
2023-04-26T20:46:12.097Z,99694.22
2023-04-26T20:48:39.849Z,99694.00
2023-04-26T20:51:07.430Z,99700.16
2023-04-26T20:53:36.671Z,99699.03
2023-04-26T20:56:04.153Z,99698.22
2023-04-26T20:58:31.268Z,99706.41
2023-04-26T21:00:59.843Z,99701.97
2023-04-26T21:03:27.494Z,99701.03
2023-04-26T21:05:55.568Z,99700.06
2023-04-26T21:08:23.381Z,99699.25
2023-04-26T21:10:51.640Z,99695.06
2023-04-26T21:13:19.225Z,99702.84
2023-04-26T21:15:47.510Z,99706.59
2023-04-26T21:18:15.105Z,99701.88
2023-04-26T21:20:42.523Z,99715.25
2023-04-26T21:23:11.102Z,99722.13
2023-04-26T21:25:38.380Z,99717.00
2023-04-26T21:28:05.942Z,99723.97
2023-04-26T21:30:33.549Z,99719.59
2023-04-26T21:33:00.916Z,99727.13
2023-04-26T21:35:28.305Z,99720.22
2023-04-26T21:37:55.853Z,99731.63
2023-04-26T21:40:24.227Z,99729.94
2023-04-26T21:43:03.851Z,99724.03
2023-04-26T21:45:32.471Z,99736.16
2023-04-26T21:48:01.285Z,99735.38
2023-04-26T21:50:28.903Z,99724.84
2023-04-26T21:52:56.336Z,99740.28
2023-04-26T21:55:23.818Z,99737.59
2023-04-26T21:57:52.259Z,99741.16
2023-04-26T22:00:20.052Z,99736.94
2023-04-26T22:02:47.232Z,99744.56
2023-04-26T22:05:23.012Z,99753.16
2023-04-26T22:07:53.104Z,99746.16
2023-04-26T22:10:20.486Z,99749.78
2023-04-26T22:12:47.795Z,99747.91
2023-04-26T22:15:15.359Z,99753.16
2023-04-26T22:17:44.767Z,99761.13
2023-04-26T22:20:12.719Z,99749.63
2023-04-26T22:22:40.322Z,99749.91
2023-04-26T22:25:08.982Z,99758.63
2023-04-26T22:27:36.535Z,99759.75
2023-04-26T22:30:20.475Z,99767.75
2023-04-26T22:32:57.525Z,99760.94
2023-04-26T22:35:31.273Z,99757.44
2023-04-26T22:37:59.722Z,99767.94
2023-04-26T22:40:27.095Z,99759.28
2023-04-26T22:42:54.851Z,99761.00
2023-04-26T22:45:23.132Z,99764.44
2023-04-26T22:47:50.590Z,99765.28
2023-04-26T22:50:24.150Z,99766.16
2023-04-26T22:52:51.633Z,99764.34
2023-04-26T22:55:19.418Z,99767.88
2023-04-26T22:57:46.978Z,99769.69
2023-04-26T23:00:14.976Z,99773.00
2023-04-26T23:02:42.465Z,99768.69
2023-04-26T23:05:10.473Z,99768.47
2023-04-26T23:07:43.553Z,99767.56
2023-04-26T23:10:11.520Z,99769.34
2023-04-26T23:12:41.007Z,99778.09
2023-04-26T23:15:09.879Z,99785.81
2023-04-26T23:17:37.471Z,99769.97
2023-04-26T23:20:12.504Z,99776.25
2023-04-26T23:22:43.886Z,99772.75
2023-04-26T23:25:13.142Z,99770.28
2023-04-26T23:27:41.679Z,99781.50
2023-04-26T23:30:09.381Z,99776.31
2023-04-26T23:32:37.549Z,99776.22
2023-04-26T23:35:07.108Z,99777.94
2023-04-26T23:37:34.562Z,99776.06
2023-04-26T23:40:02.116Z,99772.56
2023-04-26T23:42:29.456Z,99775.19
2023-04-26T23:45:04.773Z,99769.91
2023-04-26T23:47:32.267Z,99776.00
2023-04-26T23:49:59.493Z,99775.94
2023-04-26T23:52:28.068Z,99778.66
2023-04-26T23:54:55.410Z,99776.91
2023-04-26T23:57:22.888Z,99782.97
2023-04-26T23:59:50.346Z,99780.94
